Time;durP1;ratioP1;P1;durP2;ratioP2;P2;SDS_P1;SDS_P2;PMS_P1;PMS_P2;Temp;Humidity;BMP_temperature;BMP_pressure;BME280_temperature;BME280_humidity;BME280_pressure;Samples;Min_cycle;Max_cycle;Signal;HPM_P1;HPM_P2
2023/09/16 00:01:17;;;;;;;7.50;3.88;;;;;;;24.16;100.00;101055.47;4993489;28;20689;-48
2023/09/16 00:03:44;;;;;;;5.57;3.15;;;;;;;24.21;100.00;101051.13;4994848;28;20057;-46
2023/09/16 00:06:12;;;;;;;7.65;4.10;;;;;;;24.27;100.00;101057.69;4998834;28;20464;-44
2023/09/16 00:08:42;;;;;;;6.20;3.70;;;;;;;24.28;100.00;101051.50;4991119;28;20054;-46
2023/09/16 00:11:10;;;;;;;10.77;3.42;;;;;;;24.29;100.00;101057.94;4991096;28;20050;-47
2023/09/16 00:13:37;;;;;;;6.68;3.55;;;;;;;24.31;100.00;101055.38;4991228;28;20501;-50
2023/09/16 00:16:04;;;;;;;7.68;3.28;;;;;;;24.28;100.00;101056.38;4986682;28;20046;-44
2023/09/16 00:18:31;;;;;;;7.13;3.58;;;;;;;24.29;100.00;101057.94;4993255;28;20105;-44
2023/09/16 00:20:58;;;;;;;8.75;3.58;;;;;;;24.29;100.00;101052.25;4991465;28;20129;-47
2023/09/16 00:23:24;;;;;;;5.63;3.40;;;;;;;24.26;100.00;101056.09;4991084;28;20077;-48
2023/09/16 00:25:52;;;;;;;7.55;3.40;;;;;;;24.31;100.00;101056.13;4990636;28;20054;-47
2023/09/16 00:28:18;;;;;;;6.50;3.63;;;;;;;24.29;100.00;101058.72;4989980;28;20787;-49
2023/09/16 00:30:45;;;;;;;6.60;3.33;;;;;;;24.26;100.00;101056.09;4985216;28;20073;-46
2023/09/16 00:33:12;;;;;;;7.30;3.25;;;;;;;24.31;100.00;101061.06;4990994;28;20056;-48
2023/09/16 00:35:38;;;;;;;9.02;3.20;;;;;;;24.23;100.00;101055.06;4990927;28;20089;-46
2023/09/16 00:38:05;;;;;;;6.05;3.17;;;;;;;24.29;100.00;101057.94;4994964;28;20057;-48
2023/09/16 00:40:31;;;;;;;5.93;3.15;;;;;;;24.29;100.00;101052.25;4990248;28;20112;-48
2023/09/16 00:42:58;;;;;;;8.63;3.47;;;;;;;24.30;100.00;101051.75;4990346;28;20128;-47
2023/09/16 00:45:25;;;;;;;5.85;3.03;;;;;;;24.31;100.00;101039.09;4997225;28;20130;-48
2023/09/16 00:47:51;;;;;;;6.63;3.45;;;;;;;24.30;100.00;101051.75;4985534;28;20046;-50
2023/09/16 00:50:18;;;;;;;6.53;3.20;;;;;;;24.28;100.00;101047.88;4989960;28;20413;-45
2023/09/16 00:52:57;;;;;;;4.85;2.92;;;;;;;24.26;100.00;101037.00;4990007;28;20055;-46
2023/09/16 00:55:26;;;;;;;6.55;3.00;;;;;;;24.22;100.00;101038.47;4990503;28;20129;-48
2023/09/16 00:57:54;;;;;;;8.65;4.15;;;;;;;24.19;100.00;101031.75;4992004;28;20509;-47
2023/09/16 01:00:23;;;;;;;4.97;2.92;;;;;;;24.28;100.00;101033.66;4991141;28;20061;-47
2023/09/16 01:02:50;;;;;;;4.78;2.63;;;;;;;24.23;100.00;101032.31;4988999;28;20141;-46
2023/09/16 01:05:17;;;;;;;6.03;2.97;;;;;;;24.26;100.00;101025.63;4989355;28;20062;-46
2023/09/16 01:07:48;;;;;;;5.38;2.70;;;;;;;24.26;100.00;101037.00;4989864;28;20085;-47
2023/09/16 01:10:18;;;;;;;5.22;2.85;;;;;;;24.27;100.00;101026.44;4989949;28;20100;-45
2023/09/16 01:12:46;;;;;;;7.78;2.90;;;;;;;24.19;100.00;101019.59;4989992;28;20082;-45
2023/09/16 01:15:15;;;;;;;4.63;2.53;;;;;;;24.21;100.00;101020.69;4992131;28;20468;-49
2023/09/16 01:17:58;;;;;;;7.78;2.85;;;;;;;24.28;100.00;101020.25;4989729;28;20141;-48
2023/09/16 01:20:25;;;;;;;5.38;2.80;;;;;;;24.25;100.00;101023.31;4990480;28;20470;-48
2023/09/16 01:22:51;;;;;;;3.45;2.50;;;;;;;24.17;100.00;101022.19;4989271;28;20132;-43
2023/09/16 01:25:18;;;;;;;4.45;2.42;;;;;;;24.15;100.00;101019.06;4989530;28;20109;-48
2023/09/16 01:27:45;;;;;;;4.57;3.10;;;;;;;24.17;100.00;101017.25;4989374;28;20529;-45
2023/09/16 01:30:13;;;;;;;7.38;3.15;;;;;;;24.17;100.00;101011.59;4991318;28;20125;-47
2023/09/16 01:33:06;;;;;;;4.30;2.60;;;;;;;24.19;100.00;101017.53;4989985;28;20137;-46
2023/09/16 01:35:37;;;;;;;4.20;2.42;;;;;;;24.21;100.00;101026.34;4990056;28;20144;-46
2023/09/16 01:38:05;;;;;;;6.82;3.42;;;;;;;24.19;100.00;101019.59;4989900;28;20046;-47
2023/09/16 01:40:33;;;;;;;4.00;2.58;;;;;;;24.21;100.00;101020.69;4989208;28;20054;-45
2023/09/16 01:43:02;;;;;;;6.88;2.92;;;;;;;24.24;100.00;101022.50;4989095;28;20077;-47
2023/09/16 01:45:43;;;;;;;5.50;2.90;;;;;;;24.22;100.00;101024.28;4991752;28;20564;-47
2023/09/16 01:48:10;;;;;;;7.35;2.60;;;;;;;24.23;100.00;101023.00;4995174;28;20682;-49
2023/09/16 01:50:37;;;;;;;5.00;2.70;;;;;;;24.21;100.00;101022.72;4989397;28;20739;-45
2023/09/16 01:53:06;;;;;;;3.80;2.42;;;;;;;24.19;100.00;101017.53;4988416;28;20060;-43
2023/09/16 01:55:34;;;;;;;6.18;2.60;;;;;;;24.16;100.00;101012.09;4989119;28;20046;-48
2023/09/16 01:58:00;;;;;;;4.93;2.40;;;;;;;24.17;100.00;101016.50;4989118;28;20420;-43
2023/09/16 02:00:27;;;;;;;4.57;2.90;;;;;;;24.19;100.00;101011.06;4990114;28;20104;-47
2023/09/16 02:02:54;;;;;;;6.85;2.60;;;;;;;24.24;100.00;101013.22;4995480;28;20049;-47
2023/09/16 02:05:20;;;;;;;3.78;2.30;;;;;;;24.14;100.00;101006.91;4988671;28;20054;-44
2023/09/16 02:07:47;;;;;;;5.47;2.50;;;;;;;24.15;100.00;101013.38;4988725;28;20641;-47
2023/09/16 02:10:14;;;;;;;6.88;3.00;;;;;;;24.13;100.00;101010.28;4989278;28;20109;-51
2023/09/16 02:12:41;;;;;;;4.20;2.20;;;;;;;24.17;100.00;101005.91;4994514;28;20073;-44
2023/09/16 02:15:09;;;;;;;5.10;2.40;;;;;;;24.16;100.00;101007.19;5002414;28;20107;-45
2023/09/16 02:17:39;;;;;;;5.90;2.65;;;;;;;24.13;100.00;101004.59;4995374;28;20051;-46
2023/09/16 02:20:12;;;;;;;6.80;2.33;;;;;;;24.16;100.00;101010.03;4994511;28;20060;-47
2023/09/16 02:22:40;;;;;;;4.93;2.67;;;;;;;24.16;100.00;101012.09;4999245;28;20045;-45
2023/09/16 02:25:07;;;;;;;6.20;2.97;;;;;;;24.19;100.00;101008.25;5006103;28;20108;-44
2023/09/16 02:27:34;;;;;;;5.53;2.60;;;;;;;24.15;100.00;100999.19;5006131;28;20108;-45
2023/09/16 02:30:01;;;;;;;4.70;2.10;;;;;;;24.13;100.00;101007.44;4991184;28;20042;-44
2023/09/16 02:32:29;;;;;;;4.30;2.53;;;;;;;24.11;100.00;100998.63;4988883;28;20108;-45
2023/09/16 02:34:55;;;;;;;5.85;2.50;;;;;;;24.11;100.00;101001.47;4990324;28;20053;-44
2023/09/16 02:37:22;;;;;;;4.07;2.67;;;;;;;24.13;100.00;100996.06;4989203;28;20089;-45
2023/09/16 02:39:48;;;;;;;4.18;2.35;;;;;;;24.11;100.00;100990.91;4988470;28;20074;-46
2023/09/16 02:42:15;;;;;;;5.55;2.47;;;;;;;24.13;100.00;100990.41;5003809;28;20493;-48
2023/09/16 02:44:41;;;;;;;5.20;2.40;;;;;;;24.11;100.00;100995.78;4989029;28;20058;-49
2023/09/16 02:47:08;;;;;;;5.28;2.60;;;;;;;24.11;100.00;100990.91;4988849;28;20053;-45
2023/09/16 02:49:34;;;;;;;4.93;2.20;;;;;;;24.09;100.00;100998.34;4988655;28;20058;-50
2023/09/16 02:52:01;;;;;;;3.97;2.47;;;;;;;24.15;100.00;100990.66;4990444;28;20370;-43
2023/09/16 02:54:29;;;;;;;4.53;2.30;;;;;;;24.14;100.00;100989.88;4991547;28;20062;-48
2023/09/16 02:56:55;;;;;;;3.83;2.13;;;;;;;24.14;100.00;100992.72;4988843;28;20043;-45
2023/09/16 02:59:22;;;;;;;4.53;2.25;;;;;;;24.12;100.00;100985.97;4987564;28;20050;-46
2023/09/16 03:01:48;;;;;;;5.38;2.60;;;;;;;24.13;100.00;100984.72;5003563;28;20125;-45
2023/09/16 03:04:15;;;;;;;7.93;3.20;;;;;;;24.16;100.00;100992.19;4996340;28;20058;-44
2023/09/16 03:06:41;;;;;;;4.57;2.38;;;;;;;24.14;100.00;100989.09;4988646;28;20057;-48
2023/09/16 03:09:08;;;;;;;5.13;2.60;;;;;;;24.08;100.00;100986.22;4986783;28;20057;-46
2023/09/16 03:11:38;;;;;;;3.92;2.40;;;;;;;24.13;100.00;100990.41;4988611;28;20074;-48
2023/09/16 03:14:04;;;;;;;3.50;2.20;;;;;;;24.16;100.00;100986.53;4988659;28;20870;-44
2023/09/16 03:16:31;;;;;;;4.78;2.40;;;;;;;24.13;100.00;100984.72;4988912;28;20089;-45
2023/09/16 03:18:58;;;;;;;3.95;2.38;;;;;;;24.10;100.00;100986.47;4987794;28;20516;-44
2023/09/16 03:21:25;;;;;;;4.05;2.03;;;;;;;24.08;100.00;100985.44;4988326;28;20102;-46
2023/09/16 03:23:52;;;;;;;4.53;2.30;;;;;;;24.11;100.00;100987.28;4988660;28;20050;-47
2023/09/16 03:26:19;;;;;;;4.47;2.40;;;;;;;24.16;100.00;100992.19;4991669;28;20543;-46
2023/09/16 03:28:46;;;;;;;5.18;2.63;;;;;;;24.15;100.00;100982.13;4990654;28;20046;-42
2023/09/16 03:31:15;;;;;;;5.75;2.60;;;;;;;24.13;100.00;100979.78;5001745;28;20136;-47
2023/09/16 03:33:42;;;;;;;3.85;2.40;;;;;;;24.14;100.00;100983.44;5009316;28;20058;-47
2023/09/16 03:36:08;;;;;;;3.97;2.67;;;;;;;24.08;100.00;100979.75;4992109;28;20104;-44
2023/09/16 03:38:43;;;;;;;4.65;2.70;;;;;;;24.11;100.00;100984.44;4990868;28;20489;-44
2023/09/16 03:41:10;;;;;;;2.83;2.00;;;;;;;24.16;100.00;100978.00;4990913;28;20049;-50
2023/09/16 03:43:37;;;;;;;4.22;2.47;;;;;;;24.18;100.00;100972.59;4998932;28;20046;-50
2023/09/16 03:46:03;;;;;;;5.45;2.45;;;;;;;24.09;100.00;100978.47;4991838;28;20890;-50
2023/09/16 03:48:30;;;;;;;7.53;3.28;;;;;;;24.13;100.00;100976.97;4990975;28;20726;-45
2023/09/16 03:50:56;;;;;;;5.55;2.50;;;;;;;24.14;100.00;100977.75;4991234;28;20082;-47
2023/09/16 03:53:25;;;;;;;2.70;1.95;;;;;;;24.12;100.00;100974.63;4990901;28;20128;-44
2023/09/16 03:56:05;;;;;;;3.83;2.20;;;;;;;24.13;100.00;100970.50;4991677;28;20156;-44
2023/09/16 03:58:33;;;;;;;4.78;2.63;;;;;;;24.13;100.00;100973.34;4989864;28;20065;-45
2023/09/16 04:01:00;;;;;;;5.80;2.58;;;;;;;24.10;100.00;100977.19;4991015;28;20061;-47
2023/09/16 04:03:27;;;;;;;5.18;2.35;;;;;;;24.10;100.00;100965.84;4991028;28;20069;-45
2023/09/16 04:05:57;;;;;;;4.00;2.40;;;;;;;24.08;100.00;100968.41;4991511;28;20056;-42
2023/09/16 04:08:26;;;;;;;4.22;2.00;;;;;;;24.05;100.00;100955.19;4990877;28;20062;-44
2023/09/16 04:11:06;;;;;;;4.70;2.30;;;;;;;24.12;100.00;100952.69;4991500;28;20050;-45
2023/09/16 04:13:33;;;;;;;3.80;2.28;;;;;;;24.04;100.00;100953.66;4991391;28;20053;-48
2023/09/16 04:15:59;;;;;;;5.03;2.20;;;;;;;24.05;100.00;100953.16;4995697;28;20133;-45
2023/09/16 04:18:26;;;;;;;3.35;2.20;;;;;;;24.08;100.00;100959.88;4990515;28;20046;-44
2023/09/16 04:20:55;;;;;;;4.00;2.15;;;;;;;24.11;100.00;100950.34;4991142;28;20062;-44
2023/09/16 04:23:22;;;;;;;4.53;2.33;;;;;;;24.04;100.00;100956.50;4991184;28;20410;-46
2023/09/16 04:25:56;;;;;;;5.63;2.53;;;;;;;24.11;100.00;100970.22;4990598;28;20134;-49
2023/09/16 04:28:24;;;;;;;3.55;1.90;;;;;;;24.09;100.00;100964.25;4992413;28;20066;-46
2023/09/16 04:30:52;;;;;;;3.95;2.40;;;;;;;24.11;100.00;100967.38;4994557;28;20053;-46
2023/09/16 04:33:19;;;;;;;4.18;2.47;;;;;;;24.09;100.00;100958.59;4990428;28;20653;-46
2023/09/16 04:35:48;;;;;;;3.90;2.35;;;;;;;24.08;100.00;100965.56;4990881;28;20050;-45
2023/09/16 04:38:16;;;;;;;4.78;2.30;;;;;;;24.10;100.00;100957.31;4989607;28;20092;-45
2023/09/16 04:40:44;;;;;;;3.72;2.13;;;;;;;24.11;100.00;100958.88;4991058;28;20065;-47
2023/09/16 04:43:13;;;;;;;4.25;2.20;;;;;;;24.09;100.00;100952.91;4990619;28;20046;-44
2023/09/16 04:45:44;;;;;;;3.90;2.13;;;;;;;24.01;100.00;100954.66;4993280;28;20062;-43
2023/09/16 04:48:15;;;;;;;5.90;2.42;;;;;;;24.08;100.00;100957.03;4991941;28;20049;-47
2023/09/16 04:50:43;;;;;;;4.97;2.20;;;;;;;24.06;100.00;100951.06;4993264;28;20402;-47
2023/09/16 04:53:10;;;;;;;4.10;2.42;;;;;;;24.04;100.00;100960.09;4990464;28;20133;-48
2023/09/16 04:55:37;;;;;;;5.40;2.40;;;;;;;24.09;100.00;100945.16;4989994;28;20124;-45
2023/09/16 04:58:04;;;;;;;4.22;2.17;;;;;;;24.03;100.00;100957.78;5001969;28;20058;-45
2023/09/16 05:00:33;;;;;;;5.38;2.47;;;;;;;24.06;100.00;100957.53;4974155;28;20056;-47
2023/09/16 05:03:00;;;;;;;5.35;2.40;;;;;;;24.06;100.00;100953.91;5004437;28;20081;-48
2023/09/16 05:05:27;;;;;;;4.53;2.45;;;;;;;24.09;100.00;100948.00;4989509;28;20412;-44
2023/09/16 05:07:54;;;;;;;3.45;2.22;;;;;;;24.12;100.00;100947.00;4989975;28;20113;-45
2023/09/16 05:10:20;;;;;;;4.72;2.42;;;;;;;24.08;100.00;100943.63;4990002;28;20058;-47
2023/09/16 05:12:47;;;;;;;4.95;2.63;;;;;;;24.10;100.00;100955.25;4990248;28;20074;-45
2023/09/16 05:15:14;;;;;;;3.72;2.20;;;;;;;24.00;100.00;100953.88;4989263;28;20502;-47
2023/09/16 05:17:40;;;;;;;3.97;2.05;;;;;;;24.07;100.00;100955.50;4989487;28;20510;-46
2023/09/16 05:20:10;;;;;;;5.07;2.30;;;;;;;24.03;100.00;100955.72;4989584;28;20199;-48
2023/09/16 05:22:38;;;;;;;4.30;2.25;;;;;;;24.02;100.00;100959.84;4989849;28;20047;-47
2023/09/16 05:25:06;;;;;;;4.78;2.50;;;;;;;24.06;100.00;100962.44;4990099;28;20046;-44
2023/09/16 05:27:32;;;;;;;4.70;2.40;;;;;;;24.05;100.00;100966.56;4989538;28;20607;-44
2023/09/16 05:30:01;;;;;;;3.70;2.00;;;;;;;24.08;100.00;100963.50;4990081;28;20058;-47
2023/09/16 05:32:29;;;;;;;6.18;2.20;;;;;;;24.05;100.00;100953.16;4989061;28;20639;-46
2023/09/16 05:34:56;;;;;;;3.92;2.35;;;;;;;24.15;100.00;100956.56;4989577;28;20042;-45
2023/09/16 05:37:22;;;;;;;4.95;2.67;;;;;;;24.06;100.00;100965.28;4989566;28;20541;-44
2023/09/16 05:39:49;;;;;;;3.35;2.00;;;;;;;24.09;100.00;100953.69;4988784;28;20056;-48
2023/09/16 05:42:15;;;;;;;5.53;2.40;;;;;;;24.04;100.00;100968.63;4989249;28;20049;-45
2023/09/16 05:44:42;;;;;;;3.83;2.35;;;;;;;24.06;100.00;100960.38;4988464;28;20073;-46
2023/09/16 05:47:08;;;;;;;5.70;2.20;;;;;;;24.04;100.00;100959.34;4989043;28;20054;-46
2023/09/16 05:49:35;;;;;;;4.00;2.30;;;;;;;24.04;100.00;100957.25;4989266;28;20046;-49
2023/09/16 05:52:02;;;;;;;3.67;2.00;;;;;;;24.06;100.00;100954.69;4988862;28;20566;-44
2023/09/16 05:54:28;;;;;;;5.03;2.53;;;;;;;24.13;100.00;100962.00;4989105;28;20053;-42
2023/09/16 05:56:55;;;;;;;6.45;2.80;;;;;;;24.05;100.00;100964.50;4988152;28;20097;-42
2023/09/16 05:59:21;;;;;;;6.00;2.90;;;;;;;24.04;100.00;100956.50;4987338;28;20050;-44
2023/09/16 06:01:50;;;;;;;7.18;3.42;;;;;;;23.87;100.00;100958.44;4995619;28;20120;-42
2023/09/16 06:04:17;;;;;;;8.70;3.25;;;;;;;24.03;100.00;100958.53;4999746;28;20061;-43
2023/09/16 06:06:45;;;;;;;6.72;2.83;;;;;;;23.96;100.00;100958.22;4995224;28;20050;-44
2023/09/16 06:09:11;;;;;;;6.40;3.50;;;;;;;23.88;100.00;100955.09;4993064;28;20050;-42
2023/09/16 06:11:38;;;;;;;6.30;3.35;;;;;;;23.78;100.00;100953.72;4996022;28;20046;-44
2023/09/16 06:14:05;;;;;;;5.35;3.00;;;;;;;23.84;100.00;100950.91;4988872;28;20054;-44
2023/09/16 06:16:33;;;;;;;6.38;3.17;;;;;;;23.71;100.00;100957.00;4989683;28;20054;-42
2023/09/16 06:18:59;;;;;;;7.03;3.03;;;;;;;23.83;100.00;100957.88;4989449;28;20137;-42
2023/09/16 06:21:26;;;;;;;9.50;3.78;;;;;;;23.85;100.00;100960.97;4992637;28;20054;-43
2023/09/16 06:23:53;;;;;;;6.60;3.42;;;;;;;23.73;100.00;100956.50;4989822;28;20100;-41
2023/09/16 06:26:19;;;;;;;8.32;4.15;;;;;;;23.87;100.00;100959.19;4995140;28;20586;-42
2023/09/16 06:28:46;;;;;;;7.25;3.58;;;;;;;23.79;100.00;100968.66;4988479;28;20108;-41
2023/09/16 06:31:13;;;;;;;12.02;4.07;;;;;;;23.72;100.00;100972.75;4992889;28;20077;-46
2023/09/16 06:33:40;;;;;;;12.80;4.30;;;;;;;23.73;100.00;100965.03;4991032;28;20109;-45
2023/09/16 06:36:06;;;;;;;9.80;3.67;;;;;;;23.72;100.00;100969.13;4990636;28;20050;-42
2023/09/16 06:38:33;;;;;;;8.82;3.50;;;;;;;23.66;100.00;100979.66;4993317;28;20054;-43
2023/09/16 06:41:00;;;;;;;9.25;4.03;;;;;;;23.71;100.00;100967.56;4989710;28;20065;-43
2023/09/16 06:43:26;;;;;;;10.18;4.88;;;;;;;23.66;100.00;100974.75;4992024;28;20074;-42
2023/09/16 06:45:53;;;;;;;8.70;4.03;;;;;;;23.69;100.00;100973.00;4990628;28;20046;-43
2023/09/16 06:48:20;;;;;;;10.60;4.72;;;;;;;23.65;100.00;100969.56;4989113;28;20524;-42
2023/09/16 06:50:46;;;;;;;9.15;4.57;;;;;;;23.61;100.00;100977.53;4985026;28;20074;-42
2023/09/16 06:53:13;;;;;;;9.27;4.40;;;;;;;23.65;100.00;100969.56;4989198;28;20133;-43
2023/09/16 06:55:39;;;;;;;10.05;4.75;;;;;;;23.63;100.00;100972.16;4988667;28;20139;-45
2023/09/16 06:58:07;;;;;;;10.80;5.07;;;;;;;23.68;100.00;100972.19;4986296;28;20054;-46
2023/09/16 07:00:36;;;;;;;11.20;5.03;;;;;;;23.72;100.00;100967.06;4994693;28;20056;-46
2023/09/16 07:03:03;;;;;;;12.38;4.32;;;;;;;23.73;100.00;100979.22;4990559;28;20061;-44
2023/09/16 07:05:30;;;;;;;11.30;4.20;;;;;;;23.71;100.00;100973.25;4992395;28;20161;-45
2023/09/16 07:07:58;;;;;;;14.55;5.35;;;;;;;23.69;100.00;100970.16;4992632;28;20177;-44
2023/09/16 07:10:25;;;;;;;9.98;4.78;;;;;;;23.68;100.00;100963.69;4990908;28;20109;-45
2023/09/16 07:12:52;;;;;;;11.35;5.22;;;;;;;23.76;100.00;100966.84;4989543;28;20039;-45
2023/09/16 07:15:20;;;;;;;11.15;4.53;;;;;;;23.75;100.00;100965.28;4983612;28;20137;-44
2023/09/16 07:17:46;;;;;;;19.45;5.03;;;;;;;23.68;100.00;100971.41;4990370;28;20046;-45
2023/09/16 07:20:13;;;;;;;9.95;4.10;;;;;;;23.71;100.00;100967.56;4991395;28;20050;-46
2023/09/16 07:22:40;;;;;;;10.35;4.20;;;;;;;23.83;100.00;100963.56;4992102;28;20512;-46
2023/09/16 07:25:07;;;;;;;11.05;4.57;;;;;;;23.72;100.00;100966.28;4991086;28;20057;-44
2023/09/16 07:27:33;;;;;;;12.27;4.70;;;;;;;23.76;100.00;100967.63;4991928;28;20088;-46
2023/09/16 07:30:00;;;;;;;13.50;4.40;;;;;;;23.77;100.00;100968.41;4990996;28;20050;-45
2023/09/16 07:32:27;;;;;;;8.20;4.32;;;;;;;23.76;100.00;100975.38;5005185;28;20093;-46
2023/09/16 07:34:54;;;;;;;9.10;4.50;;;;;;;23.76;100.00;100969.69;4989651;28;20054;-47
2023/09/16 07:37:20;;;;;;;9.38;4.22;;;;;;;23.74;100.00;100972.25;4990411;28;20050;-46
2023/09/16 07:39:49;;;;;;;9.73;4.20;;;;;;;23.77;100.00;100976.91;4988531;28;20046;-45
2023/09/16 07:42:15;;;;;;;15.05;4.20;;;;;;;23.70;100.00;100968.84;4990931;28;20054;-44
2023/09/16 07:44:42;;;;;;;11.50;4.10;;;;;;;23.71;100.00;100973.25;4989721;28;20138;-49
2023/09/16 07:47:09;;;;;;;10.90;4.35;;;;;;;23.73;100.00;100976.38;4990812;28;20046;-45
2023/09/16 07:49:35;;;;;;;9.05;4.18;;;;;;;23.70;100.00;100963.19;4984273;28;20210;-47
2023/09/16 07:52:02;;;;;;;9.35;4.30;;;;;;;23.72;100.00;100974.78;4983412;28;20185;-44
2023/09/16 07:54:29;;;;;;;9.50;4.00;;;;;;;23.71;100.00;100971.19;4986973;28;20141;-49
2023/09/16 07:56:55;;;;;;;9.48;4.30;;;;;;;23.67;100.00;100975.53;4987479;28;20508;-50
2023/09/16 07:59:22;;;;;;;9.50;4.25;;;;;;;23.69;100.00;100975.84;4982822;28;20141;-49
2023/09/16 08:01:48;;;;;;;10.35;4.32;;;;;;;23.70;100.00;100977.38;4991474;28;20465;-47
2023/09/16 08:04:15;;;;;;;8.50;3.88;;;;;;;23.70;100.00;100969.63;4986730;28;20061;-51
2023/09/16 08:06:42;;;;;;;9.43;4.13;;;;;;;23.71;100.00;100976.88;4996335;28;20045;-51
2023/09/16 08:09:08;;;;;;;9.15;4.38;;;;;;;23.70;100.00;100983.81;4990587;28;20050;-47
2023/09/16 08:11:35;;;;;;;7.68;3.95;;;;;;;23.66;100.00;100980.44;4990540;28;20576;-48
2023/09/16 08:14:01;;;;;;;7.28;4.13;;;;;;;23.61;100.00;100974.69;4992471;28;20050;-49
2023/09/16 08:16:28;;;;;;;7.68;3.95;;;;;;;23.61;100.00;100980.38;4991607;28;20066;-47
2023/09/16 08:18:55;;;;;;;11.52;4.47;;;;;;;23.65;100.00;100984.56;4994364;28;20461;-50
2023/09/16 08:21:21;;;;;;;10.07;4.03;;;;;;;23.70;100.00;100991.56;4990623;28;20711;-47
2023/09/16 08:23:48;;;;;;;9.48;4.35;;;;;;;23.67;100.00;100990.53;4991094;28;20070;-47
2023/09/16 08:26:14;;;;;;;13.35;4.10;;;;;;;23.70;100.00;100994.41;4996704;28;20062;-50
2023/09/16 08:28:41;;;;;;;10.57;4.18;;;;;;;23.70;100.00;100997.25;4990844;28;20567;-45
2023/09/16 08:31:07;;;;;;;9.07;4.10;;;;;;;23.71;100.00;100995.97;4985551;28;20137;-48
2023/09/16 08:33:34;;;;;;;8.98;3.70;;;;;;;23.68;100.00;100997.75;4995527;28;20093;-47
2023/09/16 08:36:01;;;;;;;7.32;3.70;;;;;;;23.72;100.00;100997.50;4990384;28;20050;-49
2023/09/16 08:38:27;;;;;;;7.63;4.00;;;;;;;23.75;100.00;100993.66;4990585;28;20074;-48
2023/09/16 08:41:04;;;;;;;9.80;4.35;;;;;;;23.72;100.00;100989.78;4990544;28;20175;-50
2023/09/16 08:43:39;;;;;;;7.60;3.92;;;;;;;23.74;100.00;100992.13;4990201;28;20065;-47
2023/09/16 08:46:09;;;;;;;7.78;3.53;;;;;;;23.76;100.00;100987.50;4989836;28;20166;-51
2023/09/16 08:48:40;;;;;;;11.32;4.18;;;;;;;23.74;100.00;100994.97;4988679;28;20073;-47
2023/09/16 08:51:11;;;;;;;7.22;3.65;;;;;;;23.73;100.00;100982.81;4997335;28;20053;-46
2023/09/16 08:53:39;;;;;;;8.68;4.20;;;;;;;23.77;100.00;100988.28;4995134;28;20042;-46
2023/09/16 08:56:07;;;;;;;7.30;3.80;;;;;;;23.73;100.00;100988.50;4995689;28;20050;-46
2023/09/16 08:58:39;;;;;;;7.85;4.00;;;;;;;23.74;100.00;100992.91;4992817;28;20144;-48
2023/09/16 09:01:06;;;;;;;11.40;4.38;;;;;;;23.71;100.00;100999.59;4990354;28;20065;-47
2023/09/16 09:03:33;;;;;;;8.05;3.63;;;;;;;23.78;100.00;100995.50;4987414;28;20100;-50
2023/09/16 09:06:00;;;;;;;8.93;3.95;;;;;;;23.76;100.00;101001.69;4989390;28;20058;-48
2023/09/16 09:08:28;;;;;;;11.13;3.92;;;;;;;23.78;100.00;100993.47;4988474;28;20051;-51
2023/09/16 09:10:55;;;;;;;9.20;3.83;;;;;;;23.77;100.00;101000.41;4990743;28;20054;-50
2023/09/16 09:13:23;;;;;;;8.52;4.47;;;;;;;23.81;100.00;100994.50;4989082;28;20057;-51
2023/09/16 09:15:55;;;;;;;10.95;4.63;;;;;;;23.79;100.00;100997.84;4989242;28;20073;-47
2023/09/16 09:18:23;;;;;;;7.43;3.92;;;;;;;23.79;100.00;100991.38;4985747;28;20074;-48
2023/09/16 09:20:51;;;;;;;7.32;3.72;;;;;;;23.84;100.00;100996.34;4988226;28;20105;-51
2023/09/16 09:23:17;;;;;;;8.93;3.67;;;;;;;23.70;100.00;100989.50;4988703;28;20046;-50
2023/09/16 09:25:44;;;;;;;7.88;3.72;;;;;;;23.75;100.00;100994.47;4987376;28;20053;-46
2023/09/16 09:28:13;;;;;;;9.75;4.03;;;;;;;23.80;100.00;100992.94;4988859;28;20189;-43
2023/09/16 09:30:41;;;;;;;10.57;4.55;;;;;;;23.81;100.00;100983.94;4989386;28;20061;-45
2023/09/16 09:33:13;;;;;;;8.88;3.78;;;;;;;23.82;100.00;100990.38;4987855;28;20493;-42
2023/09/16 09:35:40;;;;;;;9.18;4.07;;;;;;;23.79;100.00;100982.84;4988007;28;20532;-43
2023/09/16 09:38:08;;;;;;;8.35;3.83;;;;;;;23.78;100.00;100987.00;4988914;28;20046;-47
2023/09/16 09:40:34;;;;;;;8.15;3.90;;;;;;;23.80;100.00;100987.28;4994354;28;20085;-46
2023/09/16 09:43:01;;;;;;;7.80;4.22;;;;;;;23.87;100.00;100981.13;4986794;28;20077;-48
2023/09/16 09:45:32;;;;;;;9.15;4.00;;;;;;;23.88;100.00;100985.53;4988832;28;20050;-49
2023/09/16 09:47:59;;;;;;;8.98;4.20;;;;;;;23.89;100.00;100978.56;4988027;28;20230;-46
2023/09/16 09:50:30;;;;;;;10.13;3.95;;;;;;;23.83;100.00;100995.53;4989719;28;20054;-49
2023/09/16 09:53:00;;;;;;;15.38;4.10;;;;;;;23.92;100.00;100988.91;4984670;28;20086;-46
2023/09/16 09:55:30;;;;;;;10.25;3.85;;;;;;;23.92;100.00;100992.53;4988777;28;20046;-50
2023/09/16 09:57:58;;;;;;;12.63;3.58;;;;;;;23.90;100.00;100992.25;4987554;28;21917;-48
2023/09/16 10:00:26;;;;;;;8.55;3.90;;;;;;;23.96;100.00;100989.47;4987033;28;20061;-48
2023/09/16 10:02:52;;;;;;;8.43;3.95;;;;;;;23.99;100.00;100985.63;4983454;28;20050;-49
2023/09/16 10:05:21;;;;;;;12.80;4.30;;;;;;;24.01;100.00;100989.53;4990105;28;20135;-49
2023/09/16 10:07:50;;;;;;;11.00;4.93;;;;;;;24.02;100.00;100979.72;4992365;28;20077;-46
2023/09/16 10:10:22;;;;;;;11.48;3.85;;;;;;;24.04;100.00;100982.81;4989660;28;20086;-47
2023/09/16 10:12:52;;;;;;;10.45;3.70;;;;;;;24.01;100.00;100983.06;4988726;28;20081;-49
2023/09/16 10:15:41;;;;;;;9.38;4.30;;;;;;;24.02;100.00;100985.41;4985100;28;20141;-48
2023/09/16 10:18:08;;;;;;;12.43;3.90;;;;;;;23.98;100.00;100976.34;4991396;28;20065;-47
2023/09/16 10:20:42;;;;;;;9.55;4.15;;;;;;;24.01;100.00;100980.22;4993574;28;20046;-51
2023/09/16 10:23:10;;;;;;;8.38;3.85;;;;;;;24.04;100.00;100984.91;4996970;28;20105;-49
2023/09/16 10:25:37;;;;;;;8.45;3.60;;;;;;;24.07;100.00;100978.22;4986655;28;20046;-49
2023/09/16 10:28:08;;;;;;;9.30;3.88;;;;;;;24.08;100.00;100982.59;4987158;28;20066;-50
2023/09/16 10:30:36;;;;;;;7.43;3.53;;;;;;;24.07;100.00;100984.66;4994219;28;20130;-47
2023/09/16 10:33:08;;;;;;;8.40;3.80;;;;;;;24.05;100.00;100995.75;4991748;28;20046;-45
2023/09/16 10:35:41;;;;;;;9.25;4.38;;;;;;;23.97;100.00;100993.88;4989075;28;20050;-47
2023/09/16 10:38:10;;;;;;;11.75;4.40;;;;;;;23.97;100.00;100991.03;5001798;28;20051;-47
2023/09/16 10:40:38;;;;;;;11.02;4.53;;;;;;;24.05;100.00;100992.91;4994604;28;20070;-47
2023/09/16 10:43:05;;;;;;;12.13;4.45;;;;;;;24.07;100.00;100998.09;4996140;28;20058;-47
2023/09/16 10:45:32;;;;;;;10.30;4.38;;;;;;;24.09;100.00;100993.47;4992446;28;20066;-48
2023/09/16 10:48:01;;;;;;;11.77;4.85;;;;;;;24.01;100.00;101002.94;4990230;28;20050;-48
2023/09/16 10:50:30;;;;;;;13.18;5.72;;;;;;;23.95;100.00;100996.44;4992597;28;20046;-47
2023/09/16 10:53:05;;;;;;;13.18;4.50;;;;;;;24.04;100.00;100990.56;4994195;28;20065;-46
2023/09/16 10:55:44;;;;;;;10.10;4.18;;;;;;;23.99;100.00;100996.97;4987193;28;20505;-49
2023/09/16 10:58:45;;;;;;;11.90;4.43;;;;;;;23.98;100.00;100979.19;4988583;28;20058;-46
2023/09/16 11:01:18;;;;;;;15.82;4.93;;;;;;;24.02;100.00;100981.78;4992085;28;20123;-48
2023/09/16 11:03:53;;;;;;;9.68;4.38;;;;;;;24.03;100.00;100977.66;4992388;28;20531;-47
2023/09/16 11:06:19;;;;;;;9.27;4.45;;;;;;;24.09;100.00;100970.72;5004009;28;20050;-49
2023/09/16 11:08:47;;;;;;;11.73;4.32;;;;;;;24.10;100.00;100969.44;4993031;28;20093;-47
2023/09/16 11:11:15;;;;;;;9.88;4.28;;;;;;;24.11;100.00;100973.06;4999054;28;20054;-48
2023/09/16 11:13:41;;;;;;;10.30;4.28;;;;;;;24.09;100.00;100984.16;4992492;28;20138;-48
2023/09/16 11:16:11;;;;;;;10.70;4.85;;;;;;;24.09;100.00;100975.63;4999635;28;20078;-48
2023/09/16 11:18:42;;;;;;;12.60;4.88;;;;;;;24.12;100.00;100971.78;4993365;28;20071;-50